Time;durP1;ratioP1;P1;durP2;ratioP2;P2;SDS_P1;SDS_P2;PMS_P1;PMS_P2;Temp;Humidity;BMP_temperature;BMP_pressure;BME280_temperature;BME280_humidity;BME280_pressure;Samples;Min_cycle;Max_cycle;Signal;HPM_P1;HPM_P2
2021/10/12 00:01:19;;;;;;;59.67;32.95;;;;;;;8.81;86.94;96858.50;5008455;28;20053;-72
2021/10/12 00:03:47;;;;;;;65.70;31.98;;;;;;;8.82;87.13;96862.84;5009757;28;20057;-72
2021/10/12 00:06:14;;;;;;;61.22;31.35;;;;;;;8.80;87.16;96860.44;5008402;28;20045;-72
2021/10/12 00:08:41;;;;;;;62.33;32.15;;;;;;;8.82;87.14;96866.38;5009761;28;20056;-72
2021/10/12 00:11:07;;;;;;;68.22;32.78;;;;;;;8.86;87.15;96863.88;5008517;28;20429;-72
2021/10/12 00:13:34;;;;;;;61.63;32.20;;;;;;;8.81;87.39;96864.75;4992230;28;20061;-72
2021/10/12 00:16:01;;;;;;;67.65;32.92;;;;;;;8.81;87.40;96863.94;4989526;28;20058;-72
2021/10/12 00:18:27;;;;;;;64.22;32.05;;;;;;;8.84;87.67;96857.94;5000545;28;20056;-72
2021/10/12 00:20:55;;;;;;;68.15;32.55;;;;;;;8.78;87.44;96859.94;5002528;28;20411;-71
2021/10/12 00:23:22;;;;;;;61.83;31.30;;;;;;;8.80;88.01;96867.75;5007636;28;20060;-73
2021/10/12 00:25:48;;;;;;;68.50;32.22;;;;;;;8.77;87.96;96879.19;5009442;28;20049;-72
2021/10/12 00:28:15;;;;;;;62.45;31.40;;;;;;;8.79;87.63;96868.88;5008175;28;20050;-72
2021/10/12 00:30:42;;;;;;;66.95;32.47;;;;;;;8.82;87.78;96868.28;5009646;28;20532;-72
2021/10/12 00:33:08;;;;;;;66.63;33.35;;;;;;;8.87;88.10;96879.06;5007755;28;20140;-71
2021/10/12 00:35:35;;;;;;;67.60;31.40;;;;;;;8.93;87.44;96877.06;5009454;28;20061;-72
2021/10/12 00:38:02;;;;;;;71.43;32.53;;;;;;;8.97;87.48;96878.91;5008025;28;20567;-71
2021/10/12 00:40:29;;;;;;;64.65;32.20;;;;;;;9.01;87.22;96879.94;5009195;28;20046;-71
2021/10/12 00:42:55;;;;;;;63.25;31.50;;;;;;;9.00;86.93;96872.91;5009287;28;20046;-71
2021/10/12 00:45:24;;;;;;;66.68;31.90;;;;;;;8.98;86.83;96874.28;5008057;28;20053;-71
2021/10/12 00:47:58;;;;;;;67.72;31.88;;;;;;;9.02;87.15;96878.03;5008760;28;20096;-72
2021/10/12 00:50:25;;;;;;;64.97;33.65;;;;;;;9.07;87.01;96873.31;5007749;28;20568;-72
2021/10/12 00:52:52;;;;;;;58.60;29.35;;;;;;;9.11;87.01;96868.91;5009033;28;20053;-71
2021/10/12 00:55:20;;;;;;;67.28;32.42;;;;;;;9.13;86.87;96866.72;4999430;28;20038;-72
2021/10/12 00:57:47;;;;;;;58.85;28.90;;;;;;;9.19;86.45;96875.59;5009280;28;20073;-72
2021/10/12 01:00:13;;;;;;;59.65;28.08;;;;;;;9.19;85.88;96875.59;5007729;28;20508;-72
2021/10/12 01:02:40;;;;;;;58.58;28.25;;;;;;;9.20;85.69;96871.78;5008711;28;20049;-72
2021/10/12 01:05:07;;;;;;;51.70;26.33;;;;;;;9.13;85.82;96864.00;5008114;28;20054;-72
2021/10/12 01:07:34;;;;;;;52.80;27.55;;;;;;;9.12;86.16;96859.66;5007997;28;20497;-72
2021/10/12 01:10:01;;;;;;;53.35;25.52;;;;;;;9.09;85.80;96859.47;5000547;28;20060;-72
2021/10/12 01:12:29;;;;;;;48.60;24.65;;;;;;;9.10;86.06;96856.44;5007673;28;20046;-73
2021/10/12 01:14:56;;;;;;;53.30;24.90;;;;;;;9.08;85.56;96852.41;5008364;28;20050;-72
2021/10/12 01:17:23;;;;;;;45.70;25.20;;;;;;;9.09;85.65;96843.97;5007211;28;20056;-74
2021/10/12 01:19:49;;;;;;;45.50;23.08;;;;;;;9.09;85.82;96841.25;5008858;28;20073;-72
2021/10/12 01:22:17;;;;;;;43.10;22.98;;;;;;;9.07;85.33;96840.72;5007366;28;20054;-72
2021/10/12 01:24:44;;;;;;;44.80;23.52;;;;;;;9.06;85.13;96844.53;5020004;28;20037;-72
2021/10/12 01:27:10;;;;;;;41.15;23.15;;;;;;;9.02;85.14;96843.53;5015238;28;20054;-72
2021/10/12 01:29:37;;;;;;;47.35;24.38;;;;;;;9.03;85.41;96837.00;5007095;28;20050;-72
2021/10/12 01:32:04;;;;;;;45.03;23.27;;;;;;;9.02;85.49;96831.84;5007314;28;20424;-72
2021/10/12 01:34:30;;;;;;;47.65;24.13;;;;;;;9.05;85.01;96832.06;5007836;28;20413;-72
2021/10/12 01:36:57;;;;;;;48.70;24.20;;;;;;;9.04;84.53;96824.22;5008245;28;20045;-72
2021/10/12 01:39:24;;;;;;;46.55;24.13;;;;;;;9.02;85.05;96826.41;5007006;28;20041;-72
2021/10/12 01:41:51;;;;;;;45.22;22.63;;;;;;;8.99;84.82;96822.41;5007978;28;20417;-72
2021/10/12 01:44:19;;;;;;;41.80;22.52;;;;;;;8.95;84.48;96821.38;5006695;28;20049;-72
2021/10/12 01:46:46;;;;;;;46.72;23.80;;;;;;;8.93;84.91;96823.59;5008248;28;20049;-73
2021/10/12 01:49:13;;;;;;;49.83;24.25;;;;;;;8.99;84.82;96821.59;5007310;28;20065;-72
2021/10/12 01:51:39;;;;;;;42.15;22.60;;;;;;;8.97;84.21;96813.72;5008173;28;20053;-72
2021/10/12 01:54:15;;;;;;;41.00;22.27;;;;;;;8.92;84.50;96813.78;5006984;28;20046;-72
2021/10/12 01:56:43;;;;;;;43.17;23.67;;;;;;;8.76;84.08;96812.44;5017513;28;20046;-72
2021/10/12 01:59:10;;;;;;;46.65;24.63;;;;;;;8.75;84.97;96808.09;5027152;28;20056;-71
2021/10/12 02:01:36;;;;;;;42.53;23.52;;;;;;;8.81;85.15;96807.72;5027159;28;20049;-72
2021/10/12 02:04:03;;;;;;;45.05;23.35;;;;;;;8.87;85.14;96813.88;5027447;28;20054;-72
2021/10/12 02:06:29;;;;;;;38.35;21.13;;;;;;;8.89;84.92;96800.81;5026972;28;20516;-72
2021/10/12 02:08:55;;;;;;;44.10;22.48;;;;;;;8.92;84.78;96800.22;5027605;28;20057;-71
2021/10/12 02:11:22;;;;;;;38.72;21.67;;;;;;;8.88;84.66;96799.22;5026539;28;20057;-72
2021/10/12 02:13:50;;;;;;;42.80;22.17;;;;;;;8.89;85.04;96789.97;5027479;28;20042;-72
2021/10/12 02:16:16;;;;;;;39.80;21.77;;;;;;;8.89;84.86;96789.97;5026791;28;20069;-71
2021/10/12 02:18:43;;;;;;;48.13;23.52;;;;;;;8.96;85.23;96789.59;5027062;28;20046;-72
2021/10/12 02:21:09;;;;;;;42.35;22.10;;;;;;;8.95;85.02;96794.22;5026685;28;20049;-72
2021/10/12 02:23:36;;;;;;;41.78;21.30;;;;;;;8.91;84.84;96785.03;5026570;28;20048;-72
2021/10/12 02:26:03;;;;;;;36.40;19.52;;;;;;;8.88;84.68;96785.63;5024560;28;20049;-71
2021/10/12 02:28:29;;;;;;;45.80;21.33;;;;;;;8.81;84.89;96787.91;5006694;28;20521;-71
2021/10/12 02:30:57;;;;;;;37.80;19.77;;;;;;;8.74;85.13;96782.06;5007800;28;20054;-71
2021/10/12 02:33:23;;;;;;;39.42;20.75;;;;;;;8.76;85.45;96785.28;5006109;28;20430;-72
2021/10/12 02:35:50;;;;;;;40.22;20.90;;;;;;;8.70;85.27;96791.88;5007433;28;20050;-72
2021/10/12 02:38:16;;;;;;;36.95;20.20;;;;;;;8.73;85.58;96788.59;5006302;28;20053;-72
2021/10/12 02:40:43;;;;;;;37.70;20.88;;;;;;;8.80;85.61;96791.72;5007405;28;20049;-72
2021/10/12 02:43:09;;;;;;;37.22;19.60;;;;;;;8.85;85.43;96788.94;5010229;28;20042;-72
2021/10/12 02:45:36;;;;;;;38.58;19.02;;;;;;;8.91;84.78;96778.78;5010703;28;20049;-72
2021/10/12 02:48:04;;;;;;;33.78;18.35;;;;;;;8.93;85.01;96774.69;5010391;28;20049;-71
2021/10/12 02:50:31;;;;;;;37.90;19.00;;;;;;;8.86;84.38;96768.81;5010295;28;20046;-72
2021/10/12 02:52:57;;;;;;;34.63;19.13;;;;;;;8.89;84.82;96770.94;5011272;28;20060;-72
2021/10/12 02:55:24;;;;;;;37.72;18.27;;;;;;;8.85;84.55;96772.66;5009727;28;20057;-72
2021/10/12 02:57:50;;;;;;;34.70;17.98;;;;;;;8.90;84.88;96764.41;5030382;28;20045;-73
2021/10/12 03:00:17;;;;;;;32.25;16.65;;;;;;;8.93;84.35;96766.53;5029779;28;20053;-72
2021/10/12 03:02:44;;;;;;;31.90;16.42;;;;;;;8.87;84.32;96759.56;5030471;28;20050;-72
2021/10/12 03:05:12;;;;;;;30.52;16.73;;;;;;;8.83;84.29;96748.50;5029708;28;20056;-72
2021/10/12 03:07:39;;;;;;;33.63;16.48;;;;;;;8.80;84.53;96743.66;5022192;28;20045;-72
2021/10/12 03:10:07;;;;;;;31.67;16.85;;;;;;;8.77;84.73;96748.88;5029840;28;20694;-71
2021/10/12 03:12:34;;;;;;;27.15;14.52;;;;;;;8.71;85.12;96739.19;5030679;28;20412;-72
2021/10/12 03:15:00;;;;;;;31.35;16.10;;;;;;;8.70;84.97;96746.53;5030369;28;20064;-72
2021/10/12 03:17:27;;;;;;;28.90;14.80;;;;;;;8.69;84.89;96746.84;5029445;28;20041;-72
2021/10/12 03:19:53;;;;;;;30.13;13.90;;;;;;;8.63;85.10;96744.22;5030556;28;20132;-71
2021/10/12 03:22:21;;;;;;;27.83;14.10;;;;;;;8.66;85.75;96731.13;5030386;28;20054;-72
2021/10/12 03:24:48;;;;;;;28.70;13.90;;;;;;;8.63;85.08;96727.13;5030132;28;20051;-71
2021/10/12 03:27:15;;;;;;;25.80;12.90;;;;;;;8.59;85.06;96718.75;5016372;28;20065;-72
2021/10/12 03:29:42;;;;;;;30.13;14.25;;;;;;;8.52;84.94;96725.66;5009882;28;20045;-72
2021/10/12 03:32:09;;;;;;;28.05;13.70;;;;;;;8.46;85.51;96727.66;5009681;28;20551;-72
2021/10/12 03:34:36;;;;;;;27.95;14.05;;;;;;;8.46;85.59;96733.09;5015097;28;20049;-72
2021/10/12 03:37:03;;;;;;;25.25;12.93;;;;;;;8.47;86.09;96729.25;5029478;28;20056;-71
2021/10/12 03:39:31;;;;;;;29.20;13.32;;;;;;;8.44;85.24;96715.47;5027950;28;20053;-72
2021/10/12 03:41:58;;;;;;;24.98;13.90;;;;;;;8.39;85.82;96705.50;5030477;28;20069;-72
2021/10/12 03:44:25;;;;;;;26.40;13.68;;;;;;;8.40;85.93;96696.25;5028557;28;20061;-71
2021/10/12 03:46:52;;;;;;;29.60;13.27;;;;;;;8.40;86.03;96701.69;5029739;28;20049;-72
2021/10/12 03:49:18;;;;;;;30.52;14.07;;;;;;;8.43;86.18;96700.28;5028782;28;20061;-74
2021/10/12 03:51:45;;;;;;;30.50;14.15;;;;;;;8.39;86.04;96694.66;5029392;28;20045;-72
2021/10/12 03:54:12;;;;;;;29.35;14.05;;;;;;;8.36;85.71;96695.25;5028540;28;20128;-72
2021/10/12 03:56:40;;;;;;;29.27;15.15;;;;;;;8.28;85.94;96693.16;5020946;28;20046;-72
2021/10/12 03:59:07;;;;;;;29.90;14.07;;;;;;;8.24;85.99;96689.41;5009258;28;20070;-71
2021/10/12 04:01:34;;;;;;;33.35;15.70;;;;;;;8.29;86.43;96683.91;5008795;28;20049;-71
2021/10/12 04:04:01;;;;;;;29.65;15.13;;;;;;;8.27;86.30;96676.06;5008479;28;20425;-71
2021/10/12 04:06:27;;;;;;;28.05;14.10;;;;;;;8.34;86.33;96686.53;5008786;28;20041;-71
2021/10/12 04:08:54;;;;;;;27.27;14.00;;;;;;;8.39;85.60;96677.56;5009611;28;20056;-72
2021/10/12 04:11:20;;;;;;;32.30;15.52;;;;;;;8.41;85.43;96681.59;5008721;28;20137;-71
2021/10/12 04:13:48;;;;;;;28.40;14.70;;;;;;;8.43;85.58;96671.25;5009233;28;20046;-73
2021/10/12 04:16:15;;;;;;;31.23;15.60;;;;;;;8.47;85.83;96674.97;5016979;28;20562;-73
2021/10/12 04:18:42;;;;;;;31.35;15.75;;;;;;;8.57;85.47;96679.44;5028698;28;20042;-72
2021/10/12 04:21:08;;;;;;;29.83;15.23;;;;;;;8.61;85.04;96680.44;5028660;28;20045;-72
2021/10/12 04:23:35;;;;;;;32.08;15.55;;;;;;;8.65;85.32;96670.59;5029230;28;20049;-72
2021/10/12 04:26:06;;;;;;;34.95;15.52;;;;;;;8.66;83.96;96666.78;5025765;28;20056;-71
2021/10/12 04:28:32;;;;;;;30.08;15.40;;;;;;;8.65;83.80;96664.38;5008301;28;20096;-72
2021/10/12 04:31:00;;;;;;;31.45;14.57;;;;;;;8.66;83.81;96657.84;5009241;28;20049;-72
2021/10/12 04:33:27;;;;;;;31.08;15.57;;;;;;;8.73;84.35;96655.56;5007971;28;20456;-74
2021/10/12 04:35:53;;;;;;;30.35;15.95;;;;;;;8.78;84.47;96652.75;5009263;28;20057;-74
2021/10/12 04:38:20;;;;;;;28.52;15.35;;;;;;;8.82;84.43;96643.72;5008133;28;20057;-71
2021/10/12 04:40:46;;;;;;;32.50;16.45;;;;;;;8.80;83.40;96640.47;5007434;28;20050;-72
2021/10/12 04:43:13;;;;;;;34.25;16.70;;;;;;;8.72;83.65;96638.47;5008178;28;20049;-71
2021/10/12 04:45:39;;;;;;;39.72;17.55;;;;;;;8.65;83.87;96643.47;5008637;28;20046;-72
2021/10/12 04:48:08;;;;;;;36.40;18.13;;;;;;;8.61;84.06;96654.13;5021070;28;20048;-73
2021/10/12 04:50:35;;;;;;;33.03;17.83;;;;;;;8.65;84.36;96648.88;5027955;28;20056;-72
2021/10/12 04:53:01;;;;;;;39.47;18.15;;;;;;;8.66;84.67;96653.22;5028465;28;20071;-72
2021/10/12 04:55:29;;;;;;;33.22;18.10;;;;;;;8.70;85.16;96650.72;5027724;28;20056;-73
2021/10/12 04:57:56;;;;;;;38.92;18.85;;;;;;;8.73;84.83;96644.69;5009598;28;20056;-72
2021/10/12 05:00:22;;;;;;;42.72;20.73;;;;;;;8.75;85.00;96640.56;5007750;28;20156;-72
2021/10/12 05:02:49;;;;;;;38.58;20.38;;;;;;;8.79;85.02;96640.78;5008198;28;20049;-72
2021/10/12 05:05:17;;;;;;;44.03;21.02;;;;;;;8.78;84.39;96637.25;5007448;28;20057;-72
2021/10/12 05:07:43;;;;;;;46.33;21.15;;;;;;;8.76;84.36;96644.88;5007964;28;20049;-72
2021/10/12 05:10:10;;;;;;;43.45;21.92;;;;;;;8.74;84.53;96646.31;5008416;28;20058;-72
2021/10/12 05:12:37;;;;;;;48.67;20.55;;;;;;;8.75;84.51;96639.75;5008067;28;20657;-72
2021/10/12 05:15:04;;;;;;;41.63;20.88;;;;;;;8.74;84.61;96649.00;5008446;28;20049;-72
2021/10/12 05:17:36;;;;;;;46.47;22.20;;;;;;;8.77;85.22;96651.13;5007323;28;20050;-72
2021/10/12 05:20:03;;;;;;;40.60;20.92;;;;;;;8.81;84.89;96657.56;5008028;28;20046;-72
2021/10/12 05:22:31;;;;;;;43.70;22.38;;;;;;;8.85;84.85;96653.16;5007675;28;20050;-74
2021/10/12 05:24:58;;;;;;;46.10;22.92;;;;;;;8.90;84.82;96653.06;5007806;28;20049;-75
2021/10/12 05:27:24;;;;;;;46.28;22.08;;;;;;;8.95;84.60;96655.69;5021999;28;20045;-75
2021/10/12 05:29:51;;;;;;;44.58;21.13;;;;;;;8.88;84.19;96653.38;5027339;28;20041;-76
2021/10/12 05:32:17;;;;;;;42.30;22.15;;;;;;;8.91;84.47;96654.66;5027295;28;20053;-76
2021/10/12 05:34:44;;;;;;;45.50;22.00;;;;;;;8.91;84.69;96649.25;5026616;28;20046;-77
2021/10/12 05:37:11;;;;;;;43.80;22.00;;;;;;;8.88;84.51;96653.38;5027388;28;20088;-77
2021/10/12 05:39:38;;;;;;;48.10;23.20;;;;;;;8.90;84.88;96650.34;5027086;28;20841;-77
2021/10/12 05:42:05;;;;;;;50.35;22.85;;;;;;;8.90;84.70;96647.63;5027625;28;20061;-76
2021/10/12 05:44:32;;;;;;;52.72;22.67;;;;;;;8.96;84.90;96649.16;5027085;28;20049;-76
2021/10/12 05:46:58;;;;;;;47.30;22.58;;;;;;;8.94;84.71;96645.94;5027797;28;20045;-76
2021/10/12 05:49:25;;;;;;;44.63;22.35;;;;;;;8.84;84.40;96637.97;5026582;28;20045;-77
2021/10/12 05:51:51;;;;;;;44.10;21.95;;;;;;;8.81;85.12;96641.28;5027049;28;20051;-78
2021/10/12 05:54:20;;;;;;;54.15;23.55;;;;;;;8.84;85.37;96640.69;5027005;28;20042;-77
2021/10/12 05:56:54;;;;;;;53.28;25.65;;;;;;;8.84;85.56;96635.25;5017531;28;20060;-76
2021/10/12 05:59:20;;;;;;;53.78;24.73;;;;;;;8.81;85.54;96633.94;5007592;28;20053;-77
2021/10/12 06:01:47;;;;;;;49.55;24.13;;;;;;;8.88;85.18;96636.28;5006658;28;20057;-76
2021/10/12 06:04:13;;;;;;;50.75;24.50;;;;;;;8.94;85.36;96635.06;5007419;28;20053;-78
2021/10/12 06:06:40;;;;;;;51.78;24.20;;;;;;;8.96;84.81;96630.13;5006702;28;20045;-77
2021/10/12 06:09:08;;;;;;;47.38;23.27;;;;;;;8.91;84.79;96630.22;5006496;28;20050;-74
2021/10/12 06:11:35;;;;;;;52.53;25.45;;;;;;;8.87;85.11;96634.63;5007068;28;20287;-77
2021/10/12 06:14:03;;;;;;;51.47;23.70;;;;;;;8.90;84.70;96628.63;5006680;28;20058;-73
2021/10/12 06:16:29;;;;;;;54.40;24.42;;;;;;;8.95;84.95;96635.88;5008680;28;20413;-77
2021/10/12 06:18:56;;;;;;;49.83;24.90;;;;;;;8.88;84.68;96625.41;5010291;28;20050;-77
2021/10/12 06:21:22;;;;;;;52.20;25.27;;;;;;;8.89;84.98;96622.38;5011282;28;20049;-77
2021/10/12 06:23:49;;;;;;;51.05;24.45;;;;;;;8.96;84.74;96616.56;5010683;28;20053;-77
2021/10/12 06:26:16;;;;;;;50.20;23.85;;;;;;;8.91;85.02;96618.56;5011019;28;20049;-76
2021/10/12 06:28:42;;;;;;;53.83;24.02;;;;;;;8.89;84.98;96627.81;5010508;28;20046;-77
2021/10/12 06:31:10;;;;;;;52.13;24.65;;;;;;;8.88;85.31;96630.84;5011148;28;20664;-77
2021/10/12 06:33:36;;;;;;;48.50;24.67;;;;;;;8.94;85.76;96635.06;5009282;28;20061;-77
2021/10/12 06:36:03;;;;;;;50.92;26.33;;;;;;;8.97;85.69;96639.88;5009796;28;20085;-77
2021/10/12 06:38:30;;;;;;;47.67;23.65;;;;;;;8.97;85.25;96639.88;5010777;28;20057;-77
2021/10/12 06:40:56;;;;;;;50.72;23.30;;;;;;;8.96;85.36;96643.72;5010525;28;20054;-76
2021/10/12 06:43:23;;;;;;;56.55;25.40;;;;;;;8.95;85.38;96636.69;5010497;28;20042;-76
2021/10/12 06:45:49;;;;;;;53.65;23.85;;;;;;;8.93;85.18;96643.50;5010212;28;20046;-76
2021/10/12 06:48:17;;;;;;;49.67;24.80;;;;;;;9.00;85.39;96636.56;5010551;28;20057;-76
2021/10/12 06:50:44;;;;;;;47.92;24.80;;;;;;;9.04;84.92;96637.59;5010497;28;20046;-77
2021/10/12 06:53:10;;;;;;;51.42;24.98;;;;;;;9.00;84.89;96633.06;5010603;28;20056;-76
2021/10/12 06:55:37;;;;;;;47.53;24.33;;;;;;;8.97;84.77;96639.09;5010943;28;20054;-76
2021/10/12 06:58:05;;;;;;;50.60;25.10;;;;;;;8.93;85.09;96638.06;5010137;28;20058;-77
2021/10/12 07:00:32;;;;;;;52.40;24.90;;;;;;;8.97;85.16;96634.44;5010167;28;20132;-77
2021/10/12 07:02:58;;;;;;;48.80;24.30;;;;;;;8.94;85.33;96637.00;5010492;28;20065;-77
2021/10/12 07:05:26;;;;;;;52.92;25.73;;;;;;;8.89;85.92;96632.44;5010420;28;20061;-76
2021/10/12 07:07:53;;;;;;;58.47;25.50;;;;;;;8.91;85.72;96627.50;5009671;28;20061;-77
2021/10/12 07:10:19;;;;;;;52.25;24.30;;;;;;;8.90;86.19;96636.78;5010257;28;20053;-78
2021/10/12 07:12:46;;;;;;;55.10;25.55;;;;;;;8.91;86.27;96635.66;5009803;28;20053;-76
2021/10/12 07:15:12;;;;;;;51.35;25.58;;;;;;;8.93;86.33;96638.91;5010046;28;20064;-77
2021/10/12 07:17:39;;;;;;;56.13;24.90;;;;;;;8.93;86.37;96636.19;5009339;28;20049;-77
2021/10/12 07:20:08;;;;;;;55.20;24.60;;;;;;;8.98;87.03;96636.09;5009656;28;20046;-76
2021/10/12 07:22:35;;;;;;;53.80;25.65;;;;;;;8.99;86.53;96632.25;5009094;28;20779;-77
2021/10/12 07:25:04;;;;;;;54.63;25.23;;;;;;;8.98;86.35;96627.09;5009557;28;20046;-76
2021/10/12 07:27:31;;;;;;;53.22;25.27;;;;;;;8.93;86.18;96628.03;5025259;28;20045;-76
2021/10/12 07:29:57;;;;;;;59.28;25.98;;;;;;;8.91;86.37;96640.28;5029477;28;20053;-77
2021/10/12 07:32:24;;;;;;;51.67;25.13;;;;;;;8.87;86.35;96640.91;5029187;28;20049;-78
2021/10/12 07:34:50;;;;;;;61.25;26.77;;;;;;;8.90;86.91;96631.34;5028720;28;20037;-77
2021/10/12 07:37:17;;;;;;;56.72;27.17;;;;;;;8.97;87.31;96628.22;5028730;28;20045;-77
2021/10/12 07:39:45;;;;;;;50.28;24.80;;;;;;;9.02;86.82;96630.84;5028495;28;20056;-78
2021/10/12 07:42:13;;;;;;;54.38;27.58;;;;;;;8.97;86.32;96626.31;5029272;28;20053;-76
2021/10/12 07:44:40;;;;;;;50.83;25.23;;;;;;;8.98;86.65;96636.09;5028733;28;20084;-77
2021/10/12 07:47:07;;;;;;;57.92;25.45;;;;;;;8.99;87.41;96634.97;5028943;28;20049;-75
2021/10/12 07:49:34;;;;;;;56.22;25.92;;;;;;;8.99;87.04;96636.88;5029293;28;20041;-77
2021/10/12 07:52:05;;;;;;;54.97;26.98;;;;;;;9.02;87.29;96626.22;5029271;28;20052;-76
2021/10/12 07:54:39;;;;;;;61.88;27.23;;;;;;;9.03;87.84;96624.28;5029208;28;20045;-77
2021/10/12 07:57:07;;;;;;;56.22;26.15;;;;;;;9.02;87.27;96625.41;5027845;28;20073;-77
2021/10/12 07:59:33;;;;;;;54.45;26.17;;;;;;;9.02;87.15;96628.91;5029358;28;20579;-77
2021/10/12 08:02:00;;;;;;;55.70;26.85;;;;;;;8.96;86.54;96619.25;5028557;28;20060;-77
2021/10/12 08:04:26;;;;;;;61.20;26.58;;;;;;;8.93;87.12;96628.03;5029356;28;20052;-78
2021/10/12 08:06:53;;;;;;;53.58;26.85;;;;;;;8.95;87.79;96625.81;5028325;28;20057;-77
2021/10/12 08:09:19;;;;;;;60.15;27.23;;;;;;;8.95;87.99;96625.81;5028383;28;20046;-77
2021/10/12 08:11:46;;;;;;;58.95;27.65;;;;;;;8.95;88.11;96625.81;5028838;28;20049;-77
2021/10/12 08:14:17;;;;;;;52.15;25.42;;;;;;;8.84;87.76;96625.19;5028116;28;20049;-77
2021/10/12 08:16:44;;;;;;;56.95;25.88;;;;;;;8.78;88.19;96626.41;5028874;28;20110;-76
2021/10/12 08:19:11;;;;;;;56.42;26.95;;;;;;;8.78;87.99;96623.69;5027355;28;20045;-77
2021/10/12 08:21:38;;;;;;;55.95;26.98;;;;;;;8.75;88.33;96621.56;5029123;28;20568;-77
2021/10/12 08:24:06;;;;;;;53.67;26.65;;;;;;;8.70;88.54;96620.84;5027277;28;20046;-77
2021/10/12 08:26:33;;;;;;;60.67;29.00;;;;;;;8.68;89.09;96620.34;5021753;28;20053;-77
2021/10/12 08:29:00;;;;;;;51.45;26.50;;;;;;;8.65;89.06;96616.31;5007992;28;20373;-78
2021/10/12 08:31:27;;;;;;;57.05;27.13;;;;;;;8.65;89.18;96615.50;5008743;28;20387;-77
2021/10/12 08:33:54;;;;;;;53.22;26.27;;;;;;;8.50;88.92;96617.38;5008409;28;20050;-79
2021/10/12 08:36:21;;;;;;;58.03;25.45;;;;;;;8.42;89.25;96611.84;5008536;28;20061;-78
2021/10/12 08:38:52;;;;;;;45.47;22.27;;;;;;;8.36;89.52;96608.41;5007576;28;20073;-79
2021/10/12 08:41:23;;;;;;;49.20;22.33;;;;;;;8.32;89.59;96608.16;5009190;28;20065;-79
2021/10/12 08:43:51;;;;;;;50.38;22.75;;;;;;;8.35;89.71;96606.75;5009413;28;20046;-80
2021/10/12 08:46:20;;;;;;;49.67;23.67;;;;;;;8.35;89.59;96606.75;5008228;28;20054;-79
2021/10/12 08:48:48;;;;;;;49.65;23.88;;;;;;;8.40;90.00;96609.41;5010237;28;20042;-79
2021/10/12 08:51:14;;;;;;;51.83;25.02;;;;;;;8.47;90.60;96609.84;5008886;28;20076;-80
2021/10/12 08:53:41;;;;;;;55.35;25.27;;;;;;;8.50;90.86;96603.81;5009314;28;20049;-80
2021/10/12 08:56:07;;;;;;;59.28;26.08;;;;;;;8.55;91.33;96611.06;5009576;28;20056;-79
2021/10/12 08:58:34;;;;;;;59.13;24.73;;;;;;;8.56;90.94;96602.63;5009052;28;20050;-79
2021/10/12 09:01:05;;;;;;;56.90;26.30;;;;;;;8.54;90.87;96602.13;5009230;28;20061;-79
2021/10/12 09:03:47;;;;;;;60.78;27.40;;;;;;;8.60;90.84;96600.91;5008475;28;20053;-80
2021/10/12 09:06:26;;;;;;;57.53;27.05;;;;;;;8.63;90.78;96592.19;5009283;28;20077;-78
2021/10/12 09:08:57;;;;;;;54.08;25.63;;;;;;;8.68;91.26;96598.63;5008588;28;20691;-79
2021/10/12 09:11:25;;;;;;;61.60;29.52;;;;;;;8.60;90.76;96600.91;5008852;28;20129;-78
2021/10/12 09:13:58;;;;;;;66.85;30.40;;;;;;;8.52;90.65;96596.19;5008680;28;20064;-80
2021/10/12 09:16:31;;;;;;;;;;;;;;;8.52;90.87;96590.75;5009079;28;20108;-78
2021/10/12 09:19:00;;;;;;;62.38;28.00;;;;;;;8.51;91.13;96600.00;5010101;28;20013;-80
2021/10/12 09:21:30;;;;;;;56.88;26.63;;;;;;;8.45;90.53;96605.81;5008336;28;20052;-79
2021/10/12 09:24:02;;;;;;;50.13;24.15;;;;;;;8.39;91.17;96596.94;5009451;28;20061;-79
2021/10/12 09:26:33;;;;;;;33.55;16.83;;;;;;;8.26;90.03;96597.72;5008405;28;20046;-78
2021/10/12 09:29:02;;;;;;;32.92;16.40;;;;;;;8.21;90.00;96589.66;5008937;28;20129;-79
2021/10/12 09:31:33;;;;;;;26.42;14.38;;;;;;;8.21;90.28;96587.75;5007769;28;20057;-79
2021/10/12 09:34:04;;;;;;;34.67;16.80;;;;;;;8.22;91.18;96591.25;5000827;28;20076;-78
2021/10/12 09:36:34;;;;;;;30.00;15.45;;;;;;;8.21;91.21;96589.66;5008405;28;20072;-79
2021/10/12 09:39:01;;;;;;;26.33;13.38;;;;;;;8.24;90.20;96594.47;5007578;28;20053;-79
2021/10/12 09:41:29;;;;;;;21.30;11.60;;;;;;;8.26;90.40;96581.44;5008043;28;20128;-79
2021/10/12 09:44:08;;;;;;;21.25;11.23;;;;;;;8.28;90.63;96592.78;5007539;28;20057;-79
2021/10/12 09:46:36;;;;;;;20.35;9.77;;;;;;;8.25;89.96;96580.63;5008287;28;20416;-79
2021/10/12 09:49:13;;;;;;;20.23;9.20;;;;;;;8.15;89.39;96580.78;5007166;28;20050;-78
2021/10/12 09:51:56;;;;;;;15.32;8.40;;;;;;;8.03;89.24;96580.44;5011410;28;20078;-79
2021/10/12 09:54:24;;;;;;;19.13;9.23;;;;;;;8.03;89.71;96575.81;5011853;28;20060;-79
2021/10/12 09:56:51;;;;;;;22.30;10.23;;;;;;;8.07;90.40;96574.13;5012255;28;20627;-79
2021/10/12 09:59:18;;;;;;;22.55;10.40;;;;;;;8.20;90.85;96567.16;5011983;28;20477;-79
2021/10/12 10:01:47;;;;;;;21.23;10.80;;;;;;;8.28;90.14;96557.50;5011174;28;20097;-78
2021/10/12 10:04:17;;;;;;;21.83;12.00;;;;;;;8.35;90.66;96552.50;5010628;28;20046;-78
2021/10/12 10:06:47;;;;;;;25.75;12.85;;;;;;;8.38;90.43;96557.34;5010390;28;20390;-79
2021/10/12 10:09:14;;;;;;;28.17;13.93;;;;;;;8.52;90.99;96552.78;5011337;28;20058;-79
2021/10/12 10:11:42;;;;;;;24.38;12.48;;;;;;;8.61;90.45;96550.16;5011356;28;20049;-78
2021/10/12 10:14:10;;;;;;;25.23;12.48;;;;;;;8.66;89.94;96551.97;5010859;28;20058;-78
2021/10/12 10:16:39;;;;;;;21.73;12.48;;;;;;;8.70;89.56;96539.41;5011868;28;20409;-79
2021/10/12 10:19:09;;;;;;;27.33;13.23;;;;;;;8.70;89.44;96548.34;5010380;28;20057;-78
2021/10/12 10:21:41;;;;;;;29.13;13.90;;;;;;;8.72;89.37;96540.72;5011588;28;20053;-79
2021/10/12 10:24:11;;;;;;;26.08;13.70;;;;;;;8.75;89.35;96542.00;5009094;28;20089;-78
2021/10/12 10:26:40;;;;;;;23.10;12.88;;;;;;;8.88;88.90;96522.22;5015803;28;20053;-79
2021/10/12 10:29:37;;;;;;;22.38;12.15;;;;;;;8.97;87.17;96530.44;5010143;28;20054;-78
2021/10/12 10:32:13;;;;;;;22.00;12.32;;;;;;;9.11;87.07;96520.38;4998140;28;20489;-78
2021/10/12 10:34:41;;;;;;;23.45;13.15;;;;;;;9.23;87.27;96517.13;5010829;28;20046;-77
2021/10/12 10:37:31;;;;;;;23.48;13.45;;;;;;;9.31;87.33;96508.25;5009925;28;20057;-77
2021/10/12 10:40:02;;;;;;;21.80;13.15;;;;;;;9.28;85.49;96509.66;5011262;28;20141;-78
2021/10/12 10:42:51;;;;;;;22.70;12.35;;;;;;;9.38;85.75;96503.19;5002365;28;20539;-77
2021/10/12 10:45:18;;;;;;;24.33;13.40;;;;;;;9.47;85.09;96495.94;5010450;28;20425;-79
2021/10/12 10:47:49;;;;;;;24.77;12.43;;;;;;;9.55;85.55;96492.50;5010901;28;20100;-77
2021/10/12 10:50:17;;;;;;;22.48;12.82;;;;;;;9.63;85.51;96489.03;5009918;28;20053;-78
2021/10/12 10:52:45;;;;;;;22.60;12.68;;;;;;;9.71;85.04;96484.78;5010998;28;20058;-79
2021/10/12 10:55:20;;;;;;;20.67;11.57;;;;;;;9.82;84.67;96485.34;5007900;28;20053;-79
2021/10/12 10:58:10;;;;;;;23.48;11.80;;;;;;;9.95;85.13;96476.28;5005926;28;20535;-78
2021/10/12 11:00:38;;;;;;;14.35;8.68;;;;;;;9.95;81.29;96468.13;5010324;28;20591;-78
2021/10/12 11:03:06;;;;;;;16.90;9.63;;;;;;;9.98;81.94;96478.41;5008377;28;20049;-78
2021/10/12 11:05:38;;;;;;;19.55;9.90;;;;;;;9.96;82.30;96464.28;5010716;28;20096;-77
2021/10/12 11:08:23;;;;;;;14.90;8.50;;;;;;;10.05;82.07;96461.63;5009473;28;20045;-77
2021/10/12 11:10:56;;;;;;;13.02;7.68;;;;;;;10.00;79.46;96457.09;5011034;28;20413;-77
2021/10/12 11:13:31;;;;;;;11.80;7.70;;;;;;;10.01;79.23;96457.91;5002046;28;20049;-77
2021/10/12 11:15:58;;;;;;;16.85;8.70;;;;;;;10.07;81.95;96462.09;5010649;28;20138;-79
2021/10/12 11:18:25;;;;;;;15.45;8.65;;;;;;;10.07;81.73;96454.75;5009279;28;20053;-77
2021/10/12 11:20:55;;;;;;;14.02;8.60;;;;;;;10.12;80.96;96446.44;5010173;28;20049;-76
2021/10/12 11:23:24;;;;;;;12.52;8.10;;;;;;;10.11;79.13;96444.03;5009333;28;20092;-77
2021/10/12 11:25:57;;;;;;;15.25;8.70;;;;;;;10.16;80.12;96442.00;5012697;28;20107;-77
2021/10/12 11:28:25;;;;;;;13.98;8.25;;;;;;;10.02;79.27;96441.25;5029571;28;20052;-77
2021/10/12 11:30:52;;;;;;;18.55;10.00;;;;;;;10.07;81.64;96432.97;5029364;28;20053;-77